Terminal Aerodrome Forecast
Issued by NWS Louisville, KY

Home | Current Version | Previous Version | Text Only | Print | Product List | Glossary On
Versions: 1 2 3 4 5 6 7 8 9 10 11 12
789
FTUS43 KLMK 212327
TAFSDF
TAF
KSDF 212327Z 2200/2306 27007KT P6SM FEW045
     FM220300 30005KT P6SM FEW045
     FM221500 VRB03KT P6SM SKC=

USA.gov is the U.S. government's official web portal to all federal, state and local government web resources and services.